sensor_id;sensor_type;location;lat;lon;timestamp;temperature;humidity
69464;DHT22;56665;41.106;16.688;2023-04-03T00:02:52;14.78;80.83
69464;DHT22;56665;41.106;16.688;2023-04-03T00:05:56;14.74;80.88
69464;DHT22;56665;41.106;16.688;2023-04-03T00:09:01;14.77;81.01
69464;DHT22;56665;41.106;16.688;2023-04-03T00:12:05;14.73;80.40
69464;DHT22;56665;41.106;16.688;2023-04-03T00:15:10;14.67;80.94
69464;DHT22;56665;41.106;16.688;2023-04-03T00:18:14;14.68;81.07
69464;DHT22;56665;41.106;16.688;2023-04-03T00:21:21;14.66;81.09
69464;DHT22;56665;41.106;16.688;2023-04-03T00:24:27;14.66;81.31
69464;DHT22;56665;41.106;16.688;2023-04-03T00:27:31;14.67;81.22
69464;DHT22;56665;41.106;16.688;2023-04-03T00:30:35;14.70;81.35
69464;DHT22;56665;41.106;16.688;2023-04-03T00:33:39;14.73;81.25
69464;DHT22;56665;41.106;16.688;2023-04-03T00:36:43;14.76;81.10
69464;DHT22;56665;41.106;16.688;2023-04-03T00:39:49;14.74;81.02
69464;DHT22;56665;41.106;16.688;2023-04-03T00:42:58;14.76;81.38
69464;DHT22;56665;41.106;16.688;2023-04-03T00:46:03;14.78;81.41
69464;DHT22;56665;41.106;16.688;2023-04-03T00:49:08;14.78;81.41
69464;DHT22;56665;41.106;16.688;2023-04-03T00:52:16;14.83;81.46
69464;DHT22;56665;41.106;16.688;2023-04-03T00:55:22;14.83;81.60
69464;DHT22;56665;41.106;16.688;2023-04-03T00:58:33;14.81;81.87
69464;DHT22;56665;41.106;16.688;2023-04-03T01:01:38;14.84;81.93
69464;DHT22;56665;41.106;16.688;2023-04-03T01:04:43;14.81;82.12
69464;DHT22;56665;41.106;16.688;2023-04-03T01:07:49;14.68;82.70
69464;DHT22;56665;41.106;16.688;2023-04-03T01:10:54;14.67;82.59
69464;DHT22;56665;41.106;16.688;2023-04-03T01:14:00;14.61;82.56
69464;DHT22;56665;41.106;16.688;2023-04-03T01:24:36;14.66;82.96
69464;DHT22;56665;41.106;16.688;2023-04-03T01:27:42;14.64;82.56
69464;DHT22;56665;41.106;16.688;2023-04-03T01:31:24;14.64;82.66
69464;DHT22;56665;41.106;16.688;2023-04-03T01:34:32;14.61;82.69
69464;DHT22;56665;41.106;16.688;2023-04-03T01:37:38;14.56;83.04
69464;DHT22;56665;41.106;16.688;2023-04-03T01:40:43;14.57;83.18
69464;DHT22;56665;41.106;16.688;2023-04-03T01:43:50;14.52;83.25
69464;DHT22;56665;41.106;16.688;2023-04-03T01:46:56;14.52;83.37
69464;DHT22;56665;41.106;16.688;2023-04-03T01:50:02;14.47;83.52
69464;DHT22;56665;41.106;16.688;2023-04-03T01:53:10;14.47;83.44
69464;DHT22;56665;41.106;16.688;2023-04-03T01:56:14;14.44;83.55
69464;DHT22;56665;41.106;16.688;2023-04-03T01:59:19;14.47;83.21
69464;DHT22;56665;41.106;16.688;2023-04-03T02:02:23;14.46;83.55
69464;DHT22;56665;41.106;16.688;2023-04-03T02:05:30;14.39;83.70
69464;DHT22;56665;41.106;16.688;2023-04-03T02:08:34;14.39;83.89
69464;DHT22;56665;41.106;16.688;2023-04-03T02:11:39;14.37;83.76
69464;DHT22;56665;41.106;16.688;2023-04-03T02:14:43;14.40;83.84
69464;DHT22;56665;41.106;16.688;2023-04-03T02:17:49;14.33;83.75
69464;DHT22;56665;41.106;16.688;2023-04-03T02:20:54;14.34;83.88
69464;DHT22;56665;41.106;16.688;2023-04-03T02:23:59;14.34;83.48
69464;DHT22;56665;41.106;16.688;2023-04-03T02:27:03;14.30;83.75
69464;DHT22;56665;41.106;16.688;2023-04-03T02:30:08;14.32;83.60
69464;DHT22;56665;41.106;16.688;2023-04-03T02:33:14;14.34;82.77
69464;DHT22;56665;41.106;16.688;2023-04-03T02:36:20;14.34;82.76
69464;DHT22;56665;41.106;16.688;2023-04-03T02:39:29;14.33;82.55
69464;DHT22;56665;41.106;16.688;2023-04-03T02:42:37;14.30;82.40
69464;DHT22;56665;41.106;16.688;2023-04-03T02:45:40;14.29;82.30
69464;DHT22;56665;41.106;16.688;2023-04-03T02:48:44;14.30;81.40
69464;DHT22;56665;41.106;16.688;2023-04-03T02:51:50;14.29;81.51
69464;DHT22;56665;41.106;16.688;2023-04-03T02:54:56;14.29;81.22
69464;DHT22;56665;41.106;16.688;2023-04-03T02:57:59;14.32;81.62
69464;DHT22;56665;41.106;16.688;2023-04-03T03:01:06;14.30;81.86
69464;DHT22;56665;41.106;16.688;2023-04-03T03:04:11;14.29;82.41
69464;DHT22;56665;41.106;16.688;2023-04-03T03:07:17;14.30;82.85
69464;DHT22;56665;41.106;16.688;2023-04-03T03:10:21;14.29;83.27
69464;DHT22;56665;41.106;16.688;2023-04-03T03:13:27;14.33;83.49
69464;DHT22;56665;41.106;16.688;2023-04-03T03:16:31;14.29;83.96
69464;DHT22;56665;41.106;16.688;2023-04-03T03:19:35;14.27;84.33
69464;DHT22;56665;41.106;16.688;2023-04-03T03:22:43;14.29;84.55
69464;DHT22;56665;41.106;16.688;2023-04-03T03:25:47;14.26;84.80
69464;DHT22;56665;41.106;16.688;2023-04-03T03:28:52;14.29;85.10
69464;DHT22;56665;41.106;16.688;2023-04-03T03:31:57;14.29;85.01
69464;DHT22;56665;41.106;16.688;2023-04-03T03:35:02;14.29;85.30
69464;DHT22;56665;41.106;16.688;2023-04-03T03:38:07;14.29;85.37
69464;DHT22;56665;41.106;16.688;2023-04-03T03:41:12;14.39;85.33
69464;DHT22;56665;41.106;16.688;2023-04-03T03:44:16;14.37;85.45
69464;DHT22;56665;41.106;16.688;2023-04-03T03:47:20;14.34;85.23
69464;DHT22;56665;41.106;16.688;2023-04-03T03:50:25;14.39;85.40
69464;DHT22;56665;41.106;16.688;2023-04-03T03:53:29;14.43;85.02
69464;DHT22;56665;41.106;16.688;2023-04-03T03:56:37;14.43;85.05
69464;DHT22;56665;41.106;16.688;2023-04-03T03:59:43;14.47;84.77
69464;DHT22;56665;41.106;16.688;2023-04-03T04:02:48;14.49;84.59
69464;DHT22;56665;41.106;16.688;2023-04-03T04:05:55;14.52;84.31
69464;DHT22;56665;41.106;16.688;2023-04-03T04:09:00;14.57;84.40
69464;DHT22;56665;41.106;16.688;2023-04-03T04:12:05;14.52;84.24
69464;DHT22;56665;41.106;16.688;2023-04-03T04:15:10;14.49;84.27
69464;DHT22;56665;41.106;16.688;2023-04-03T04:18:15;14.53;84.16
69464;DHT22;56665;41.106;16.688;2023-04-03T04:21:22;14.50;84.13
69464;DHT22;56665;41.106;16.688;2023-04-03T04:24:28;14.49;84.29
69464;DHT22;56665;41.106;16.688;2023-04-03T04:27:33;14.55;84.51
69464;DHT22;56665;41.106;16.688;2023-04-03T04:30:40;14.50;85.00
69464;DHT22;56665;41.106;16.688;2023-04-03T04:33:44;14.50;85.30
69464;DHT22;56665;41.106;16.688;2023-04-03T04:36:51;14.50;85.44
69464;DHT22;56665;41.106;16.688;2023-04-03T04:39:55;14.43;85.56
69464;DHT22;56665;41.106;16.688;2023-04-03T04:43:02;14.47;85.70
69464;DHT22;56665;41.106;16.688;2023-04-03T04:46:08;14.49;85.29
69464;DHT22;56665;41.106;16.688;2023-04-03T04:49:20;14.53;85.37
69464;DHT22;56665;41.106;16.688;2023-04-03T04:52:24;14.53;84.41
69464;DHT22;56665;41.106;16.688;2023-04-03T04:55:30;14.59;84.06
69464;DHT22;56665;41.106;16.688;2023-04-03T04:58:34;14.60;83.23
69464;DHT22;56665;41.106;16.688;2023-04-03T05:01:39;14.66;83.24
69464;DHT22;56665;41.106;16.688;2023-04-03T05:04:47;14.64;82.41
69464;DHT22;56665;41.106;16.688;2023-04-03T05:07:58;14.73;82.25
69464;DHT22;56665;41.106;16.688;2023-04-03T05:11:05;14.73;81.24
69464;DHT22;56665;41.106;16.688;2023-04-03T05:14:10;14.76;81.96
69464;DHT22;56665;41.106;16.688;2023-04-03T05:17:14;14.71;83.16
69464;DHT22;56665;41.106;16.688;2023-04-03T05:20:23;14.64;83.85
69464;DHT22;56665;41.106;16.688;2023-04-03T05:23:27;14.59;84.23
69464;DHT22;56665;41.106;16.688;2023-04-03T05:26:33;14.64;84.72
69464;DHT22;56665;41.106;16.688;2023-04-03T05:29:38;14.77;83.76
69464;DHT22;56665;41.106;16.688;2023-04-03T05:32:43;14.77;83.80
69464;DHT22;56665;41.106;16.688;2023-04-03T05:35:56;14.76;83.07
69464;DHT22;56665;41.106;16.688;2023-04-03T05:39:05;14.74;83.40
69464;DHT22;56665;41.106;16.688;2023-04-03T05:42:11;14.77;83.16
69464;DHT22;56665;41.106;16.688;2023-04-03T05:45:16;14.74;83.16
69464;DHT22;56665;41.106;16.688;2023-04-03T05:48:22;14.70;84.22
69464;DHT22;56665;41.106;16.688;2023-04-03T05:51:34;14.73;84.70
69464;DHT22;56665;41.106;16.688;2023-04-03T05:54:43;14.71;84.48
69464;DHT22;56665;41.106;16.688;2023-04-03T05:57:55;14.74;84.50
69464;DHT22;56665;41.106;16.688;2023-04-03T06:00:59;14.76;84.70
69464;DHT22;56665;41.106;16.688;2023-04-03T06:04:05;14.76;85.65
69464;DHT22;56665;41.106;16.688;2023-04-03T06:07:14;14.77;85.79
69464;DHT22;56665;41.106;16.688;2023-04-03T06:10:18;14.80;85.81
69464;DHT22;56665;41.106;16.688;2023-04-03T06:13:24;14.81;86.96
69464;DHT22;56665;41.106;16.688;2023-04-03T06:16:28;14.81;85.98
69464;DHT22;56665;41.106;16.688;2023-04-03T06:19:32;14.77;84.65
69464;DHT22;56665;41.106;16.688;2023-04-03T06:22:37;14.77;84.89
69464;DHT22;56665;41.106;16.688;2023-04-03T06:25:42;14.68;82.66
69464;DHT22;56665;41.106;16.688;2023-04-03T06:28:45;14.66;82.51
69464;DHT22;56665;41.106;16.688;2023-04-03T06:31:51;14.68;81.57
69464;DHT22;56665;41.106;16.688;2023-04-03T06:34:55;14.68;79.90
69464;DHT22;56665;41.106;16.688;2023-04-03T06:38:01;14.57;79.08
69464;DHT22;56665;41.106;16.688;2023-04-03T06:41:08;14.57;78.29
69464;DHT22;56665;41.106;16.688;2023-04-03T06:44:12;14.60;77.36
69464;DHT22;56665;41.106;16.688;2023-04-03T06:47:18;14.60;77.08
69464;DHT22;56665;41.106;16.688;2023-04-03T06:50:22;14.64;77.10
69464;DHT22;56665;41.106;16.688;2023-04-03T06:53:27;14.80;76.53
69464;DHT22;56665;41.106;16.688;2023-04-03T06:56:31;14.78;76.26
69464;DHT22;56665;41.106;16.688;2023-04-03T06:59:35;14.81;76.78
69464;DHT22;56665;41.106;16.688;2023-04-03T07:02:39;14.80;76.03
69464;DHT22;56665;41.106;16.688;2023-04-03T07:05:42;14.81;76.70
69464;DHT22;56665;41.106;16.688;2023-04-03T07:08:48;14.94;76.31
69464;DHT22;56665;41.106;16.688;2023-04-03T07:11:52;14.98;75.62
69464;DHT22;56665;41.106;16.688;2023-04-03T07:14:55;14.98;75.35
69464;DHT22;56665;41.106;16.688;2023-04-03T07:17:59;15.02;75.69
69464;DHT22;56665;41.106;16.688;2023-04-03T07:21:04;15.11;74.93
69464;DHT22;56665;41.106;16.688;2023-04-03T07:24:09;15.09;74.87
69464;DHT22;56665;41.106;16.688;2023-04-03T07:27:15;15.14;74.75
69464;DHT22;56665;41.106;16.688;2023-04-03T07:30:20;15.16;75.14
69464;DHT22;56665;41.106;16.688;2023-04-03T07:33:25;15.31;74.70
69464;DHT22;56665;41.106;16.688;2023-04-03T07:36:29;15.38;74.65
69464;DHT22;56665;41.106;16.688;2023-04-03T07:39:33;15.46;74.58
69464;DHT22;56665;41.106;16.688;2023-04-03T07:42:36;15.53;74.63
69464;DHT22;56665;41.106;16.688;2023-04-03T07:45:41;15.49;75.22
69464;DHT22;56665;41.106;16.688;2023-04-03T07:48:44;15.53;75.54
69464;DHT22;56665;41.106;16.688;2023-04-03T07:51:49;15.49;75.63
69464;DHT22;56665;41.106;16.688;2023-04-03T07:54:54;15.42;76.44
69464;DHT22;56665;41.106;16.688;2023-04-03T07:57:58;15.46;76.53
69464;DHT22;56665;41.106;16.688;2023-04-03T08:01:02;15.49;76.18
69464;DHT22;56665;41.106;16.688;2023-04-03T08:04:06;15.53;76.41
69464;DHT22;56665;41.106;16.688;2023-04-03T08:07:10;15.45;76.44
69464;DHT22;56665;41.106;16.688;2023-04-03T08:10:14;15.43;76.24
69464;DHT22;56665;41.106;16.688;2023-04-03T08:13:20;15.46;76.50
69464;DHT22;56665;41.106;16.688;2023-04-03T08:16:27;15.49;76.79
69464;DHT22;56665;41.106;16.688;2023-04-03T08:19:31;15.46;76.58
69464;DHT22;56665;41.106;16.688;2023-04-03T08:22:35;15.47;76.11
69464;DHT22;56665;41.106;16.688;2023-04-03T08:25:42;15.50;76.03
69464;DHT22;56665;41.106;16.688;2023-04-03T08:28:47;15.46;75.63
69464;DHT22;56665;41.106;16.688;2023-04-03T08:31:51;15.45;75.00
69464;DHT22;56665;41.106;16.688;2023-04-03T08:34:37;15.52;75.12
69464;DHT22;56665;41.106;16.688;2023-04-03T08:37:42;15.57;75.40
69464;DHT22;56665;41.106;16.688;2023-04-03T08:40:46;15.59;74.82
69464;DHT22;56665;41.106;16.688;2023-04-03T08:43:54;15.46;74.16
69464;DHT22;56665;41.106;16.688;2023-04-03T08:50:17;15.11;77.31
69464;DHT22;56665;41.106;16.688;2023-04-03T08:53:25;14.98;76.81
69464;DHT22;56665;41.106;16.688;2023-04-03T08:56:33;14.97;77.79
69464;DHT22;56665;41.106;16.688;2023-04-03T08:59:38;14.94;76.67
69464;DHT22;56665;41.106;16.688;2023-04-03T09:02:50;14.83;78.20
69464;DHT22;56665;41.106;16.688;2023-04-03T09:06:03;14.83;77.88
69464;DHT22;56665;41.106;16.688;2023-04-03T09:09:17;14.95;77.80
69464;DHT22;56665;41.106;16.688;2023-04-03T09:12:29;15.05;77.27
69464;DHT22;56665;41.106;16.688;2023-04-03T09:15:35;15.09;77.79
69464;DHT22;56665;41.106;16.688;2023-04-03T09:18:44;15.09;78.13
69464;DHT22;56665;41.106;16.688;2023-04-03T09:21:49;15.01;78.39
69464;DHT22;56665;41.106;16.688;2023-04-03T09:25:05;14.94;78.03
69464;DHT22;56665;41.106;16.688;2023-04-03T09:28:12;14.94;77.37
69464;DHT22;56665;41.106;16.688;2023-04-03T09:31:22;15.05;76.42
69464;DHT22;56665;41.106;16.688;2023-04-03T09:34:36;15.05;76.11
69464;DHT22;56665;41.106;16.688;2023-04-03T09:37:52;15.05;76.16
69464;DHT22;56665;41.106;16.688;2023-04-03T09:41:18;14.98;75.90
69464;DHT22;56665;41.106;16.688;2023-04-03T09:44:24;15.01;75.63
69464;DHT22;56665;41.106;16.688;2023-04-03T09:47:36;15.12;75.74
69464;DHT22;56665;41.106;16.688;2023-04-03T09:51:00;15.26;75.92
69464;DHT22;56665;41.106;16.688;2023-04-03T09:57:32;15.40;75.19
69464;DHT22;56665;41.106;16.688;2023-04-03T10:00:38;15.45;74.22
69464;DHT22;56665;41.106;16.688;2023-04-03T10:03:43;15.43;73.59
69464;DHT22;56665;41.106;16.688;2023-04-03T10:06:54;15.45;72.28
69464;DHT22;56665;41.106;16.688;2023-04-03T10:10:15;15.53;71.21
69464;DHT22;56665;41.106;16.688;2023-04-03T10:13:20;15.59;70.52
69464;DHT22;56665;41.106;16.688;2023-04-03T10:16:44;15.69;70.38
69464;DHT22;56665;41.106;16.688;2023-04-03T10:19:58;15.78;69.39
69464;DHT22;56665;41.106;16.688;2023-04-03T10:26:32;15.98;69.38
69464;DHT22;56665;41.106;16.688;2023-04-03T10:30:34;16.07;69.32
69464;DHT22;56665;41.106;16.688;2023-04-03T10:40:11;15.90;70.03
69464;DHT22;56665;41.106;16.688;2023-04-03T10:56:38;15.70;70.96
69464;DHT22;56665;41.106;16.688;2023-04-03T10:59:51;15.83;71.14
69464;DHT22;56665;41.106;16.688;2023-04-03T11:03:05;15.97;70.96
69464;DHT22;56665;41.106;16.688;2023-04-03T11:06:11;16.03;70.78
69464;DHT22;56665;41.106;16.688;2023-04-03T11:09:28;16.13;70.41
69464;DHT22;56665;41.106;16.688;2023-04-03T11:12:43;16.11;70.31
69464;DHT22;56665;41.106;16.688;2023-04-03T11:15:47;16.17;70.17
69464;DHT22;56665;41.106;16.688;2023-04-03T11:19:03;16.10;69.86
69464;DHT22;56665;41.106;16.688;2023-04-03T11:22:57;16.08;69.59
69464;DHT22;56665;41.106;16.688;2023-04-03T11:25:42;16.29;69.50
69464;DHT22;56665;41.106;16.688;2023-04-03T11:28:52;16.52;68.89
69464;DHT22;56665;41.106;16.688;2023-04-03T11:35:34;16.52;67.29
69464;DHT22;56665;41.106;16.688;2023-04-03T11:38:43;16.60;66.91
69464;DHT22;56665;41.106;16.688;2023-04-03T11:41:47;16.77;66.44
69464;DHT22;56665;41.106;16.688;2023-04-03T11:51:40;16.35;67.76
69464;DHT22;56665;41.106;16.688;2023-04-03T11:54:47;16.21;67.71
69464;DHT22;56665;41.106;16.688;2023-04-03T12:04:11;16.32;67.67
69464;DHT22;56665;41.106;16.688;2023-04-03T12:07:18;16.28;68.12
69464;DHT22;56665;41.106;16.688;2023-04-03T12:10:23;16.37;68.26
69464;DHT22;56665;41.106;16.688;2023-04-03T12:13:27;16.49;68.24
69464;DHT22;56665;41.106;16.688;2023-04-03T12:19:44;16.56;68.43
69464;DHT22;56665;41.106;16.688;2023-04-03T12:23:30;16.59;68.96
69464;DHT22;56665;41.106;16.688;2023-04-03T12:30:01;16.85;68.29
69464;DHT22;56665;41.106;16.688;2023-04-03T12:33:20;16.86;68.18
69464;DHT22;56665;41.106;16.688;2023-04-03T12:39:52;16.73;70.05
69464;DHT22;56665;41.106;16.688;2023-04-03T12:46:24;16.31;72.58
69464;DHT22;56665;41.106;16.688;2023-04-03T12:52:42;15.98;71.76
69464;DHT22;56665;41.106;16.688;2023-04-03T12:55:51;16.15;71.34
69464;DHT22;56665;41.106;16.688;2023-04-03T13:02:37;16.60;70.09
69464;DHT22;56665;41.106;16.688;2023-04-03T13:05:44;16.51;70.49
69464;DHT22;56665;41.106;16.688;2023-04-03T13:08:54;16.55;70.76
69464;DHT22;56665;41.106;16.688;2023-04-03T13:12:09;16.90;69.87
69464;DHT22;56665;41.106;16.688;2023-04-03T13:15:24;17.17;68.61
69464;DHT22;56665;41.106;16.688;2023-04-03T13:18:34;17.32;67.93
69464;DHT22;56665;41.106;16.688;2023-04-03T13:21:38;17.78;67.13
69464;DHT22;56665;41.106;16.688;2023-04-03T13:24:45;18.21;65.64
69464;DHT22;56665;41.106;16.688;2023-04-03T13:27:50;18.12;66.17
69464;DHT22;56665;41.106;16.688;2023-04-03T13:34:17;16.82;70.51
69464;DHT22;56665;41.106;16.688;2023-04-03T13:37:31;16.46;70.14
69464;DHT22;56665;41.106;16.688;2023-04-03T13:41:00;16.24;69.89
69464;DHT22;56665;41.106;16.688;2023-04-03T13:47:24;15.59;71.33
69464;DHT22;56665;41.106;16.688;2023-04-03T13:50:28;15.38;71.46
69464;DHT22;56665;41.106;16.688;2023-04-03T13:53:40;14.97;72.48
69464;DHT22;56665;41.106;16.688;2023-04-03T13:56:44;14.88;73.12
69464;DHT22;56665;41.106;16.688;2023-04-03T13:59:48;14.76;73.80
69464;DHT22;56665;41.106;16.688;2023-04-03T14:02:55;14.27;81.37
69464;DHT22;56665;41.106;16.688;2023-04-03T14:06:00;13.67;84.42
69464;DHT22;56665;41.106;16.688;2023-04-03T14:09:04;13.41;87.24
69464;DHT22;56665;41.106;16.688;2023-04-03T14:15:28;13.57;85.35
69464;DHT22;56665;41.106;16.688;2023-04-03T14:18:31;13.75;83.66
69464;DHT22;56665;41.106;16.688;2023-04-03T14:21:37;14.02;82.46
69464;DHT22;56665;41.106;16.688;2023-04-03T14:24:41;14.18;82.15
69464;DHT22;56665;41.106;16.688;2023-04-03T14:27:48;14.25;82.16
69464;DHT22;56665;41.106;16.688;2023-04-03T14:30:52;14.36;81.12
69464;DHT22;56665;41.106;16.688;2023-04-03T14:33:55;14.26;81.33
69464;DHT22;56665;41.106;16.688;2023-04-03T14:37:00;14.39;80.31
69464;DHT22;56665;41.106;16.688;2023-04-03T14:40:06;14.33;80.59
69464;DHT22;56665;41.106;16.688;2023-04-03T14:43:12;14.46;78.34
69464;DHT22;56665;41.106;16.688;2023-04-03T14:46:36;14.22;78.16
69464;DHT22;56665;41.106;16.688;2023-04-03T14:49:41;14.13;77.08
69464;DHT22;56665;41.106;16.688;2023-04-03T14:52:45;14.43;75.79
69464;DHT22;56665;41.106;16.688;2023-04-03T14:55:49;14.68;75.85
69464;DHT22;56665;41.106;16.688;2023-04-03T14:58:58;14.83;74.69
69464;DHT22;56665;41.106;16.688;2023-04-03T15:02:02;14.73;74.08
69464;DHT22;56665;41.106;16.688;2023-04-03T15:05:11;14.68;74.49
69464;DHT22;56665;41.106;16.688;2023-04-03T15:08:23;14.57;74.87
69464;DHT22;56665;41.106;16.688;2023-04-03T15:11:28;14.60;75.03
69464;DHT22;56665;41.106;16.688;2023-04-03T15:14:31;14.41;76.74
69464;DHT22;56665;41.106;16.688;2023-04-03T15:17:36;14.16;76.52
69464;DHT22;56665;41.106;16.688;2023-04-03T15:20:39;14.02;78.40
69464;DHT22;56665;41.106;16.688;2023-04-03T15:23:45;13.94;79.70
69464;DHT22;56665;41.106;16.688;2023-04-03T15:26:48;13.89;80.14
69464;DHT22;56665;41.106;16.688;2023-04-03T15:29:53;13.96;80.89
69464;DHT22;56665;41.106;16.688;2023-04-03T15:32:57;14.10;81.43
69464;DHT22;56665;41.106;16.688;2023-04-03T15:36:03;14.13;82.20
69464;DHT22;56665;41.106;16.688;2023-04-03T15:39:08;14.16;82.05
69464;DHT22;56665;41.106;16.688;2023-04-03T15:42:12;14.23;82.40
69464;DHT22;56665;41.106;16.688;2023-04-03T15:45:15;14.29;82.30
69464;DHT22;56665;41.106;16.688;2023-04-03T15:48:19;14.40;82.30
69464;DHT22;56665;41.106;16.688;2023-04-03T15:51:23;14.50;82.04
69464;DHT22;56665;41.106;16.688;2023-04-03T15:54:27;14.68;81.71
69464;DHT22;56665;41.106;16.688;2023-04-03T15:57:32;14.83;80.58
69464;DHT22;56665;41.106;16.688;2023-04-03T16:00:37;14.91;80.04
69464;DHT22;56665;41.106;16.688;2023-04-03T16:03:43;15.01;79.68
69464;DHT22;56665;41.106;16.688;2023-04-03T16:06:49;15.08;79.35
69464;DHT22;56665;41.106;16.688;2023-04-03T16:09:52;15.07;79.30
69464;DHT22;56665;41.106;16.688;2023-04-03T16:12:57;14.99;79.44
69464;DHT22;56665;41.106;16.688;2023-04-03T16:16:00;15.08;79.60
69464;DHT22;56665;41.106;16.688;2023-04-03T16:19:05;15.11;79.06
69464;DHT22;56665;41.106;16.688;2023-04-03T16:22:09;15.12;78.33
69464;DHT22;56665;41.106;16.688;2023-04-03T16:25:13;15.08;77.51
69464;DHT22;56665;41.106;16.688;2023-04-03T16:28:17;15.02;76.78
69464;DHT22;56665;41.106;16.688;2023-04-03T16:31:23;14.99;77.53
69464;DHT22;56665;41.106;16.688;2023-04-03T16:34:30;14.87;79.37
69464;DHT22;56665;41.106;16.688;2023-04-03T16:37:36;14.66;82.11
69464;DHT22;56665;41.106;16.688;2023-04-03T16:40:39;14.52;83.58
69464;DHT22;56665;41.106;16.688;2023-04-03T16:43:43;14.37;84.89
69464;DHT22;56665;41.106;16.688;2023-04-03T16:46:47;14.22;84.70
69464;DHT22;56665;41.106;16.688;2023-04-03T16:49:51;14.10;83.41
69464;DHT22;56665;41.106;16.688;2023-04-03T16:52:54;14.05;83.70
69464;DHT22;56665;41.106;16.688;2023-04-03T16:55:58;14.01;84.52
69464;DHT22;56665;41.106;16.688;2023-04-03T16:59:05;13.87;84.75
69464;DHT22;56665;41.106;16.688;2023-04-03T17:02:09;13.85;85.07
69464;DHT22;56665;41.106;16.688;2023-04-03T17:05:12;13.87;84.76
69464;DHT22;56665;41.106;16.688;2023-04-03T17:08:17;13.87;83.58
69464;DHT22;56665;41.106;16.688;2023-04-03T17:11:21;13.92;83.19
69464;DHT22;56665;41.106;16.688;2023-04-03T17:14:25;13.85;82.48
69464;DHT22;56665;41.106;16.688;2023-04-03T17:17:29;13.82;83.49
69464;DHT22;56665;41.106;16.688;2023-04-03T17:20:32;13.82;84.08
69464;DHT22;56665;41.106;16.688;2023-04-03T17:23:38;13.87;84.12
69464;DHT22;56665;41.106;16.688;2023-04-03T17:26:43;13.88;84.56
69464;DHT22;56665;41.106;16.688;2023-04-03T17:29:46;13.91;83.51
69464;DHT22;56665;41.106;16.688;2023-04-03T17:32:50;13.87;83.00
69464;DHT22;56665;41.106;16.688;2023-04-03T17:35:58;13.92;83.24
69464;DHT22;56665;41.106;16.688;2023-04-03T17:39:04;13.88;83.16
69464;DHT22;56665;41.106;16.688;2023-04-03T17:42:08;13.84;83.89
69464;DHT22;56665;41.106;16.688;2023-04-03T17:45:12;13.92;84.55
69464;DHT22;56665;41.106;16.688;2023-04-03T17:48:16;13.95;83.90
69464;DHT22;56665;41.106;16.688;2023-04-03T17:51:22;13.91;83.73
69464;DHT22;56665;41.106;16.688;2023-04-03T17:54:25;13.74;85.66
69464;DHT22;56665;41.106;16.688;2023-04-03T17:57:29;13.53;86.77
69464;DHT22;56665;41.106;16.688;2023-04-03T18:00:35;13.27;88.21
69464;DHT22;56665;41.106;16.688;2023-04-03T18:03:39;13.17;88.98
69464;DHT22;56665;41.106;16.688;2023-04-03T18:06:47;13.19;88.94
69464;DHT22;56665;41.106;16.688;2023-04-03T18:09:51;13.20;88.34
69464;DHT22;56665;41.106;16.688;2023-04-03T18:12:55;13.22;88.43
69464;DHT22;56665;41.106;16.688;2023-04-03T18:15:59;13.31;88.60
69464;DHT22;56665;41.106;16.688;2023-04-03T18:19:03;13.34;88.71
69464;DHT22;56665;41.106;16.688;2023-04-03T18:22:12;13.33;88.33
69464;DHT22;56665;41.106;16.688;2023-04-03T18:25:17;13.30;87.98
69464;DHT22;56665;41.106;16.688;2023-04-03T18:28:22;13.26;87.86
69464;DHT22;56665;41.106;16.688;2023-04-03T18:31:26;13.24;87.91
69464;DHT22;56665;41.106;16.688;2023-04-03T18:34:32;13.24;88.00
69464;DHT22;56665;41.106;16.688;2023-04-03T18:37:36;13.22;88.79
69464;DHT22;56665;41.106;16.688;2023-04-03T18:40:40;13.24;87.89
69464;DHT22;56665;41.106;16.688;2023-04-03T18:43:44;13.24;89.18
69464;DHT22;56665;41.106;16.688;2023-04-03T18:46:48;13.27;87.28
69464;DHT22;56665;41.106;16.688;2023-04-03T18:49:52;13.27;85.46
69464;DHT22;56665;41.106;16.688;2023-04-03T18:52:56;13.31;86.22
69464;DHT22;56665;41.106;16.688;2023-04-03T18:56:00;13.27;85.85
69464;DHT22;56665;41.106;16.688;2023-04-03T18:59:04;13.34;84.97
69464;DHT22;56665;41.106;16.688;2023-04-03T19:02:08;13.37;84.34
69464;DHT22;56665;41.106;16.688;2023-04-03T19:05:14;13.26;84.97
69464;DHT22;56665;41.106;16.688;2023-04-03T19:08:19;13.17;84.57
69464;DHT22;56665;41.106;16.688;2023-04-03T19:11:23;13.06;84.62
69464;DHT22;56665;41.106;16.688;2023-04-03T19:14:27;12.96;82.58
69464;DHT22;56665;41.106;16.688;2023-04-03T19:17:30;12.91;82.63
69464;DHT22;56665;41.106;16.688;2023-04-03T19:20:34;12.89;84.16
69464;DHT22;56665;41.106;16.688;2023-04-03T19:23:38;12.93;83.59
69464;DHT22;56665;41.106;16.688;2023-04-03T19:26:45;12.78;83.77
69464;DHT22;56665;41.106;16.688;2023-04-03T19:29:49;11.85;87.96
69464;DHT22;56665;41.106;16.688;2023-04-03T19:32:54;11.07;89.87
69464;DHT22;56665;41.106;16.688;2023-04-03T19:35:57;10.86;90.87
69464;DHT22;56665;41.106;16.688;2023-04-03T19:39:02;10.90;91.48
69464;DHT22;56665;41.106;16.688;2023-04-03T19:42:07;10.81;92.01
69464;DHT22;56665;41.106;16.688;2023-04-03T19:45:11;10.70;92.61
69464;DHT22;56665;41.106;16.688;2023-04-03T19:48:17;10.76;93.08
69464;DHT22;56665;41.106;16.688;2023-04-03T19:51:21;10.73;92.64
69464;DHT22;56665;41.106;16.688;2023-04-03T19:54:24;10.83;93.33
69464;DHT22;56665;41.106;16.688;2023-04-03T19:57:28;11.10;93.60
69464;DHT22;56665;41.106;16.688;2023-04-03T20:00:32;11.28;93.51
69464;DHT22;56665;41.106;16.688;2023-04-03T20:03:36;11.44;93.40
69464;DHT22;56665;41.106;16.688;2023-04-03T20:06:39;11.63;93.36
69464;DHT22;56665;41.106;16.688;2023-04-03T20:09:43;11.75;93.25
69464;DHT22;56665;41.106;16.688;2023-04-03T20:12:47;11.87;93.20
69464;DHT22;56665;41.106;16.688;2023-04-03T20:15:52;11.93;92.96
69464;DHT22;56665;41.106;16.688;2023-04-03T20:18:56;12.04;92.72
69464;DHT22;56665;41.106;16.688;2023-04-03T20:22:00;12.16;92.50
69464;DHT22;56665;41.106;16.688;2023-04-03T20:25:07;12.20;92.15
69464;DHT22;56665;41.106;16.688;2023-04-03T20:28:12;12.24;91.92
69464;DHT22;56665;41.106;16.688;2023-04-03T20:31:19;12.21;91.12
69464;DHT22;56665;41.106;16.688;2023-04-03T20:34:10;12.20;90.91
69464;DHT22;56665;41.106;16.688;2023-04-03T20:37:14;12.24;91.07
69464;DHT22;56665;41.106;16.688;2023-04-03T20:40:24;12.23;90.55
69464;DHT22;56665;41.106;16.688;2023-04-03T20:43:28;12.23;90.15